METAR Data
IDs: Format: Raw Decoded Include TAF

Data at: 1952 UTC 23 Oct 2021

EKCH 231920Z AUTO 28004KT 9999 NCD 05/03 Q1026 NOSIG